Blytheville, AR

9:02 AM CDT on August 21, 2014 (GMT -0500)
Blytheville Municipal | Change Station
CLOSE
Current Station
Airport
Location: Blytheville Muni Airport,
Elevation: 256 ft
Nearby Weather Stations

Elev 256 ft 35.94 °N, 89.83 °W | Updated 9 minutes ago

Clear
Clear
81 °F
Feels Like 87 °F
N
9
Wind Variable Wind from SW

Today
High -- | Low -- °F
--% Chance of Precip.
Yesterday
High -- | Low -- °F
Precip. -- in
6:22 AM 7:41 PM
Waning Crescent, 14% visible
Pressure 30.07 in
Visibility 10.0 miles
Clouds Clear
Heat Index 87 °F
Dew Point 75 °F
Humidity 82%
Rainfall 0.00 in
Snow Depth Not available.
UV 3 out of 12
Pollen 9.30 out of 12
Air Quality Not available.
Flu Activity Not available.
METAR KHKA 211353Z AUTO 23008KT 10SM CLR 27/24 A3008 RMK AO2 SLP182 T02720239

More Conditions Fewer Conditions

Pressure 30.07 in
Visibility 10.0 miles
Clouds Clear
Heat Index 87 °F
Dew Point 75 °F
Humidity 82%
Rainfall 0.00 in
Snow Depth Not available.
UV 3 out of 12
Pollen 9.30 out of 12
Air Quality Not available.
Flu Activity Not available.
METAR KHKA 211353Z AUTO 23008KT 10SM CLR 27/24 A3008 RMK AO2 SLP182 T02720239

More Conditions Fewer Conditions

10-Day Weather Forecast

Almanac

Astronomy

Aug. 21, 2014 Rise Set
Actual Time 6:22 AM CDT 7:41 PM CDT
Civil Twilight 5:56 AM CDT 8:08 PM CDT
Nautical Twilight 5:24 AM CDT 8:40 PM CDT
Astronomical Twilight 4:50 AM CDT 9:13 PM CDT
Moon 2:56 AM CDT 5:08 PM CDT
Length of Visible Light 14h 12m
Length of Day
13h 19m
Tomorrow will be 2m 5s shorter.
Waning Crescent, 14% of the Moon is Illuminated
Today
Waning Crescent
Aug 25
New
Sep 2
First Quarter
Sep 8
Full
Sep 15
Last Quarter

Today's Extremes

State Highs State Lows

Community

WunderPhotos

Upload Photos

1,745,925 photos uploaded!

WunderBlogs® & News

Nearby

Snow Depth

Station Depth Elevation
No new snow has been reported.

Earthquake Activity

City Distance Mag. Time & Date
No recent earthquake activity has been reported nearby.
Minimum magnitude displayed is 2.5.

Coastal Water Temperatures

Place Temperature
No Stations Reporting

Nearby Weather Stations